createdAt,value
2017-09-13T00:00:26.418Z,22.07
2017-09-13T00:02:55.044Z,20.47
2017-09-13T00:05:23.620Z,20.17
2017-09-13T00:07:52.511Z,20.20
2017-09-13T00:10:21.289Z,19.50
2017-09-13T00:12:49.832Z,19.40
2017-09-13T00:15:19.562Z,18.30
2017-09-13T00:17:48.377Z,16.60
2017-09-13T00:20:16.817Z,17.70
2017-09-13T00:22:46.142Z,16.47
2017-09-13T00:25:14.766Z,17.10
2017-09-13T00:27:43.229Z,17.27
2017-09-13T00:30:11.828Z,15.77
2017-09-13T00:32:40.345Z,17.97
2017-09-13T00:35:10.532Z,15.90
2017-09-13T00:37:39.558Z,16.80
2017-09-13T00:40:08.760Z,15.87
2017-09-13T00:42:37.480Z,16.60
2017-09-13T00:45:06.081Z,17.17
2017-09-13T00:47:34.490Z,17.63
2017-09-13T00:50:03.164Z,17.40
2017-09-13T00:52:32.052Z,17.87
2017-09-13T00:55:00.788Z,17.50
2017-09-13T00:57:30.252Z,17.87
2017-09-13T00:59:58.927Z,17.97
2017-09-13T01:02:27.473Z,16.90
2017-09-13T01:04:57.956Z,17.33
2017-09-13T01:07:26.568Z,17.40
2017-09-13T01:09:55.286Z,15.93
2017-09-13T01:12:23.817Z,16.23
2017-09-13T01:14:53.191Z,18.40
2017-09-13T01:17:21.741Z,15.97
2017-09-13T01:19:50.675Z,15.37
2017-09-13T01:22:19.284Z,14.50
2017-09-13T01:24:47.923Z,13.20
2017-09-13T01:27:16.052Z,12.67
2017-09-13T01:29:44.624Z,13.30
2017-09-13T01:32:13.374Z,13.43
2017-09-13T01:34:41.976Z,13.20
2017-09-13T01:37:10.588Z,13.50
2017-09-13T01:48:19.505Z,14.87
2017-09-13T01:50:48.876Z,15.33
2017-09-13T01:53:16.911Z,13.13
2017-09-13T01:55:45.740Z,12.97
2017-09-13T01:58:14.379Z,13.73
2017-09-13T02:00:43.757Z,15.47
2017-09-13T02:03:12.512Z,13.70
2017-09-13T02:05:40.842Z,14.60
2017-09-13T02:08:10.388Z,13.47
2017-09-13T02:10:39.059Z,12.57
2017-09-13T02:13:07.575Z,14.00
2017-09-13T02:15:36.156Z,13.30
2017-09-13T02:18:04.347Z,13.77
2017-09-13T02:20:32.844Z,13.33
2017-09-13T02:23:01.574Z,12.03
2017-09-13T02:25:30.168Z,13.40
2017-09-13T02:27:58.676Z,12.80
2017-09-13T02:30:27.287Z,11.53
2017-09-13T02:32:56.219Z,13.80
2017-09-13T02:37:59.372Z,12.47
2017-09-13T02:40:27.980Z,12.30
2017-09-13T02:42:56.710Z,13.13
2017-09-13T02:45:25.587Z,12.50
2017-09-13T02:47:54.094Z,13.20
2017-09-13T02:50:22.601Z,12.20
2017-09-13T02:52:51.411Z,12.97
2017-09-13T02:55:20.127Z,13.80
2017-09-13T02:57:49.545Z,11.77
2017-09-13T03:00:17.968Z,12.33
2017-09-13T03:02:46.601Z,11.70
2017-09-13T03:05:16.005Z,11.47
2017-09-13T03:07:44.869Z,12.07
2017-09-13T03:10:13.429Z,13.17
2017-09-13T03:12:41.463Z,12.97
2017-09-13T03:15:10.147Z,11.20
2017-09-13T03:17:38.175Z,12.40
2017-09-13T03:20:06.644Z,13.93
2017-09-13T03:22:35.433Z,11.23
2017-09-13T03:25:03.522Z,12.67
2017-09-13T03:27:32.291Z,11.83
2017-09-13T03:30:01.092Z,12.10
2017-09-13T03:32:29.765Z,11.37
2017-09-13T03:34:57.808Z,11.47
2017-09-13T03:37:26.448Z,11.40
2017-09-13T03:39:55.169Z,12.13
2017-09-13T03:42:24.539Z,11.43
2017-09-13T03:44:53.363Z,11.13
2017-09-13T03:47:21.645Z,13.80
2017-09-13T03:49:50.272Z,10.90
2017-09-13T03:52:19.092Z,10.90
2017-09-13T03:54:47.812Z,10.50
2017-09-13T03:57:16.317Z,10.70
2017-09-13T03:59:45.023Z,12.70
2017-09-13T04:02:13.600Z,11.67
2017-09-13T04:04:42.352Z,12.40
2017-09-13T04:07:10.899Z,12.20
2017-09-13T04:09:39.763Z,11.57
2017-09-13T04:12:08.352Z,12.20
2017-09-13T04:14:37.143Z,14.10
2017-09-13T04:17:05.812Z,13.43
2017-09-13T04:19:34.293Z,13.73
2017-09-13T04:22:03.100Z,12.97
2017-09-13T04:24:31.874Z,13.20
2017-09-13T04:27:00.356Z,14.00
2017-09-13T04:29:29.059Z,14.20
2017-09-13T04:31:57.639Z,14.03
2017-09-13T04:34:26.392Z,14.00
2017-09-13T04:36:54.987Z,14.50
2017-09-13T04:39:23.507Z,15.37
2017-09-13T04:41:52.249Z,16.03
2017-09-13T04:44:20.391Z,16.87
2017-09-13T04:46:48.974Z,18.83
2017-09-13T04:49:17.696Z,20.30
2017-09-13T04:51:46.296Z,21.17
2017-09-13T04:54:14.344Z,20.77
2017-09-13T04:56:43.723Z,21.77
2017-09-13T04:59:12.588Z,19.60
2017-09-13T05:01:41.056Z,20.13
2017-09-13T05:04:09.579Z,20.50
2017-09-13T05:06:39.593Z,21.63
2017-09-13T05:09:07.650Z,22.40
2017-09-13T05:11:36.569Z,22.93
2017-09-13T05:14:05.389Z,25.00
2017-09-13T05:16:33.819Z,26.27
2017-09-13T05:19:02.400Z,27.00
2017-09-13T05:21:31.180Z,26.57
2017-09-13T05:24:00.040Z,27.70
2017-09-13T05:26:28.568Z,26.27
2017-09-13T05:28:57.148Z,25.30
2017-09-13T05:31:25.828Z,26.10
2017-09-13T05:33:53.868Z,24.33
2017-09-13T05:36:21.983Z,24.93
2017-09-13T05:38:50.552Z,25.07
2017-09-13T05:41:19.163Z,22.73
2017-09-13T05:43:47.831Z,20.80
2017-09-13T05:46:16.608Z,22.83
2017-09-13T05:48:45.096Z,23.97
2017-09-13T05:51:13.295Z,19.37
2017-09-13T05:53:41.804Z,18.30
2017-09-13T05:56:10.638Z,19.50
2017-09-13T05:58:39.448Z,19.73
2017-09-13T06:01:07.524Z,18.80
2017-09-13T06:03:35.933Z,18.00
2017-09-13T06:06:04.827Z,15.03
2017-09-13T06:08:34.021Z,16.77
2017-09-13T06:11:02.080Z,17.30
2017-09-13T06:13:31.014Z,16.73
2017-09-13T06:15:59.064Z,16.20
2017-09-13T06:18:27.091Z,15.10
2017-09-13T06:20:55.419Z,17.10
2017-09-13T06:23:25.175Z,16.10
2017-09-13T06:25:53.276Z,15.00
2017-09-13T06:28:21.405Z,14.07
2017-09-13T06:30:50.111Z,15.10
2017-09-13T06:33:18.619Z,14.20
2017-09-13T06:35:47.412Z,15.93
2017-09-13T06:38:16.089Z,13.40
2017-09-13T06:40:44.508Z,14.77
2017-09-13T06:43:13.740Z,14.60
2017-09-13T06:45:42.256Z,13.77
2017-09-13T06:48:10.832Z,14.70
2017-09-13T06:50:39.790Z,14.03
2017-09-13T06:53:08.204Z,14.05
2017-09-13T06:55:36.680Z,13.73
2017-09-13T06:58:05.507Z,13.93
2017-09-13T07:00:34.155Z,13.70
2017-09-13T07:03:02.587Z,13.67
2017-09-13T07:05:32.600Z,13.53
2017-09-13T07:08:02.691Z,14.43
2017-09-13T07:10:32.704Z,14.10
2017-09-13T07:15:32.680Z,14.10
2017-09-13T07:18:01.987Z,17.50
2017-09-13T07:20:31.236Z,21.23
2017-09-13T07:23:00.044Z,13.30
2017-09-13T07:25:28.576Z,15.27
2017-09-13T07:27:57.833Z,15.17
2017-09-13T07:30:26.708Z,14.63
2017-09-13T07:32:55.487Z,14.83
2017-09-13T07:35:24.018Z,16.00
2017-09-13T07:37:53.360Z,13.03
2017-09-13T07:40:21.975Z,13.40
2017-09-13T07:42:50.586Z,13.23
2017-09-13T07:45:18.752Z,13.90
2017-09-13T07:47:47.324Z,13.70
2017-09-13T07:50:15.968Z,14.80
2017-09-13T07:52:44.139Z,12.90
2017-09-13T07:55:12.353Z,13.83
2017-09-13T07:57:40.771Z,13.53
2017-09-13T08:00:09.715Z,14.10
2017-09-13T08:02:38.244Z,13.60
2017-09-13T08:05:06.333Z,12.83
2017-09-13T08:07:35.981Z,11.40
2017-09-13T08:10:04.517Z,12.80
2017-09-13T08:12:33.770Z,13.53
2017-09-13T08:15:03.181Z,14.00
2017-09-13T08:17:32.164Z,12.57
2017-09-13T08:20:00.668Z,12.70
2017-09-13T08:22:28.968Z,11.73
2017-09-13T08:24:58.864Z,12.70
2017-09-13T08:27:26.927Z,12.53
2017-09-13T08:29:55.484Z,11.80
2017-09-13T08:32:24.103Z,12.10
2017-09-13T08:34:52.669Z,12.17
2017-09-13T08:37:21.338Z,11.10
2017-09-13T08:39:49.380Z,12.17
2017-09-13T08:42:18.673Z,12.17
2017-09-13T08:44:47.499Z,12.43
2017-09-13T08:47:15.899Z,11.93
2017-09-13T08:49:44.507Z,10.77
2017-09-13T08:52:13.331Z,12.17
2017-09-13T08:54:42.700Z,11.60
2017-09-13T08:57:11.312Z,11.70
2017-09-13T08:59:40.970Z,11.87
2017-09-13T09:02:09.587Z,12.23
2017-09-13T09:04:38.904Z,12.40
2017-09-13T09:07:07.088Z,12.27
2017-09-13T09:09:36.484Z,11.37
2017-09-13T09:12:06.983Z,11.70
2017-09-13T09:14:35.453Z,11.73
2017-09-13T09:17:04.089Z,13.10
2017-09-13T09:19:33.800Z,12.67
2017-09-13T09:22:03.176Z,11.90
2017-09-13T09:24:31.851Z,12.60
2017-09-13T09:27:00.371Z,11.87
2017-09-13T09:29:29.623Z,13.37
2017-09-13T09:31:58.232Z,12.10
2017-09-13T09:34:27.014Z,12.03
2017-09-13T09:36:55.764Z,12.53
2017-09-13T09:39:24.300Z,13.00
2017-09-13T09:41:53.079Z,11.60
2017-09-13T09:44:21.272Z,13.20
2017-09-13T09:46:49.775Z,12.37
2017-09-13T09:49:19.168Z,13.23
2017-09-13T09:51:47.733Z,13.90
2017-09-13T09:54:16.409Z,14.57
2017-09-13T09:56:45.403Z,15.37
2017-09-13T09:59:13.868Z,13.93
2017-09-13T10:01:42.475Z,15.90
2017-09-13T10:04:10.621Z,15.20
2017-09-13T10:06:39.287Z,15.97
2017-09-13T10:09:08.083Z,16.70
2017-09-13T10:11:36.839Z,16.80
2017-09-13T10:14:05.464Z,15.40
2017-09-13T10:16:33.940Z,16.40
2017-09-13T10:19:03.620Z,15.23
2017-09-13T10:21:32.685Z,16.30
2017-09-13T10:24:01.207Z,18.80
2017-09-13T10:26:29.967Z,15.30
2017-09-13T10:28:58.024Z,15.23
2017-09-13T10:31:26.556Z,15.60
2017-09-13T10:33:56.229Z,16.90
2017-09-13T10:36:24.704Z,17.13
2017-09-13T10:38:53.400Z,15.20
2017-09-13T10:41:22.977Z,16.83
2017-09-13T10:43:51.597Z,17.73
2017-09-13T10:46:21.236Z,15.37
2017-09-13T10:48:50.703Z,15.30
2017-09-13T10:51:19.133Z,15.33
2017-09-13T10:53:48.651Z,15.43
2017-09-13T10:56:18.032Z,15.50
2017-09-13T10:58:47.304Z,15.33
2017-09-13T11:01:15.944Z,14.87
2017-09-13T11:03:44.584Z,16.87
2017-09-13T11:06:13.160Z,16.47
2017-09-13T11:08:41.769Z,15.07
2017-09-13T11:11:10.589Z,15.30
2017-09-13T11:13:38.948Z,14.93
2017-09-13T11:16:08.505Z,15.27
2017-09-13T11:18:37.138Z,14.70
2017-09-13T11:21:05.800Z,16.83
2017-09-13T11:23:34.801Z,16.30
2017-09-13T11:26:03.604Z,14.50
2017-09-13T11:28:31.677Z,14.43
2017-09-13T11:31:00.295Z,16.50
2017-09-13T11:33:29.298Z,14.80
2017-09-13T11:35:57.902Z,16.13
2017-09-13T11:38:26.507Z,14.93
2017-09-13T11:40:55.184Z,16.73
2017-09-13T11:43:23.968Z,16.23
2017-09-13T11:45:52.491Z,17.17
2017-09-13T11:48:21.256Z,17.60
2017-09-13T11:50:49.892Z,18.23
2017-09-13T11:53:17.923Z,18.63
2017-09-13T11:55:46.096Z,17.77
2017-09-13T11:58:14.134Z,17.17
2017-09-13T12:00:42.277Z,19.23
2017-09-13T12:03:11.169Z,18.40
2017-09-13T12:05:39.980Z,16.17
2017-09-13T12:08:08.187Z,17.50
2017-09-13T12:10:36.331Z,18.17
2017-09-13T12:13:04.396Z,17.57
2017-09-13T12:15:32.858Z,17.77
2017-09-13T12:18:02.358Z,18.97
2017-09-13T12:20:30.941Z,19.00
2017-09-13T12:23:00.249Z,17.03
2017-09-13T12:25:30.108Z,18.77
2017-09-13T12:27:58.648Z,17.70
2017-09-13T12:30:28.319Z,20.23
2017-09-13T12:32:56.977Z,19.00
2017-09-13T12:35:25.546Z,18.83
2017-09-13T12:37:54.825Z,19.73
2017-09-13T12:40:23.443Z,20.00
2017-09-13T12:42:52.120Z,18.00
2017-09-13T12:45:20.840Z,19.33
2017-09-13T12:47:49.368Z,20.43
2017-09-13T12:50:17.844Z,20.00
2017-09-13T12:52:46.564Z,19.53
2017-09-13T12:55:16.015Z,20.10
2017-09-13T12:57:44.697Z,20.07
2017-09-13T13:00:12.756Z,19.80
2017-09-13T13:02:41.500Z,19.17
2017-09-13T13:05:10.764Z,19.00
2017-09-13T13:07:39.376Z,21.13
2017-09-13T13:10:07.900Z,22.20
2017-09-13T13:12:36.443Z,19.50
2017-09-13T13:15:04.526Z,19.40
2017-09-13T13:17:34.162Z,20.77
2017-09-13T13:20:02.208Z,22.50
2017-09-13T13:22:30.975Z,20.80
2017-09-13T13:24:59.886Z,21.50
2017-09-13T13:27:29.544Z,19.80
2017-09-13T13:29:57.595Z,21.13
2017-09-13T13:32:26.370Z,21.83
2017-09-13T13:34:55.884Z,20.60
2017-09-13T13:37:25.156Z,22.00
2017-09-13T13:39:53.916Z,20.83
2017-09-13T13:42:22.425Z,21.10
2017-09-13T13:44:50.924Z,20.97
2017-09-13T13:47:20.378Z,21.30
2017-09-13T13:49:48.893Z,20.90
2017-09-13T13:52:17.428Z,21.93
2017-09-13T13:54:46.230Z,18.67
2017-09-13T13:57:14.773Z,21.47
2017-09-13T13:59:44.172Z,21.50
2017-09-13T14:02:13.700Z,21.63
2017-09-13T14:04:42.126Z,20.93
2017-09-13T14:07:10.711Z,22.70
2017-09-13T14:09:38.868Z,23.57
2017-09-13T14:12:06.940Z,20.33
2017-09-13T14:14:34.997Z,21.67
2017-09-13T14:17:03.275Z,20.77
2017-09-13T14:19:31.596Z,21.87
2017-09-13T14:21:59.964Z,21.50
2017-09-13T14:24:28.096Z,21.77
2017-09-13T14:26:57.050Z,20.50
2017-09-13T14:29:25.489Z,21.80
2017-09-13T14:31:53.604Z,20.60
2017-09-13T14:34:21.660Z,21.13
2017-09-13T14:36:49.736Z,22.70
2017-09-13T14:39:17.961Z,22.90
2017-09-13T14:41:46.020Z,20.50
2017-09-13T14:44:15.181Z,20.03
2017-09-13T14:46:43.980Z,21.77
2017-09-13T14:49:12.653Z,22.30
2017-09-13T14:51:41.306Z,23.20
2017-09-13T14:54:10.354Z,21.73
2017-09-13T14:56:38.876Z,22.17
2017-09-13T14:59:08.114Z,21.27
2017-09-13T15:01:36.849Z,21.37
2017-09-13T15:04:06.098Z,21.90
2017-09-13T15:06:34.601Z,20.93
2017-09-13T15:09:03.412Z,22.70
2017-09-13T15:11:32.160Z,21.37
2017-09-13T15:14:00.646Z,21.40
2017-09-13T15:16:29.281Z,21.53
2017-09-13T15:18:58.628Z,22.70
2017-09-13T15:21:27.436Z,21.67
2017-09-13T15:23:56.331Z,22.20
2017-09-13T15:26:25.115Z,21.43
2017-09-13T15:28:54.733Z,22.07
2017-09-13T15:31:23.606Z,21.90
2017-09-13T15:33:52.299Z,22.20
2017-09-13T15:36:20.344Z,21.70
2017-09-13T15:38:49.002Z,22.53
2017-09-13T15:41:18.409Z,21.20
2017-09-13T15:43:47.960Z,22.43
2017-09-13T15:46:16.691Z,21.30
2017-09-13T15:48:45.283Z,22.20
2017-09-13T15:51:14.453Z,20.50
2017-09-13T15:53:43.236Z,22.67
2017-09-13T15:56:11.292Z,22.00
2017-09-13T15:58:39.335Z,23.27
2017-09-13T16:01:08.716Z,21.33
2017-09-13T16:03:37.196Z,21.97
2017-09-13T16:06:05.244Z,21.70
2017-09-13T16:08:34.031Z,21.33
2017-09-13T16:11:02.647Z,21.33
2017-09-13T16:13:31.186Z,21.53
2017-09-13T16:16:00.702Z,21.53
2017-09-13T16:18:29.355Z,22.20
2017-09-13T16:20:57.883Z,20.77
2017-09-13T16:23:26.015Z,20.93
2017-09-13T16:25:54.074Z,20.87
2017-09-13T16:28:23.435Z,20.43
2017-09-13T16:30:52.244Z,20.37
2017-09-13T16:33:21.728Z,21.23
2017-09-13T16:35:50.309Z,20.40
2017-09-13T16:38:18.951Z,20.00
2017-09-13T16:40:47.409Z,21.40
2017-09-13T16:43:16.616Z,21.40
2017-09-13T16:45:46.036Z,20.83
2017-09-13T16:48:14.495Z,21.70
2017-09-13T16:50:43.696Z,21.37
2017-09-13T16:53:13.332Z,22.37
2017-09-13T16:55:42.776Z,21.27
2017-09-13T16:58:10.834Z,20.53
2017-09-13T17:00:39.088Z,21.93
2017-09-13T17:03:07.205Z,20.97
2017-09-13T17:05:35.892Z,22.50
2017-09-13T17:08:04.609Z,20.30
2017-09-13T17:10:33.101Z,22.10
2017-09-13T17:13:02.497Z,22.90
2017-09-13T17:15:31.636Z,23.13
2017-09-13T17:18:00.168Z,22.80
2017-09-13T17:20:28.715Z,22.23
2017-09-13T17:22:57.297Z,23.50
2017-09-13T17:25:25.898Z,22.70
2017-09-13T17:27:55.281Z,20.63
2017-09-13T17:30:24.097Z,21.50
2017-09-13T17:32:52.237Z,23.60
2017-09-13T17:35:20.987Z,22.67
2017-09-13T17:37:50.590Z,21.07
2017-09-13T17:40:19.028Z,22.20
2017-09-13T17:42:47.629Z,20.90
2017-09-13T17:45:16.239Z,24.60
2017-09-13T17:47:45.311Z,22.90
2017-09-13T17:50:14.057Z,21.63
2017-09-13T17:52:42.548Z,22.53
2017-09-13T17:55:11.077Z,23.00
2017-09-13T17:57:39.833Z,23.30
2017-09-13T18:00:07.984Z,23.40
2017-09-13T18:02:36.720Z,23.10
2017-09-13T18:05:04.781Z,23.20
2017-09-13T18:07:33.480Z,21.20
2017-09-13T18:10:01.520Z,24.27
2017-09-13T18:12:29.932Z,23.43
2017-09-13T18:14:58.164Z,22.43
2017-09-13T18:17:27.672Z,23.30
2017-09-13T18:19:56.357Z,23.07
2017-09-13T18:22:25.937Z,22.30
2017-09-13T18:24:55.317Z,25.00
2017-09-13T18:27:23.924Z,23.60
2017-09-13T18:29:53.312Z,21.53
2017-09-13T18:32:21.992Z,23.97
2017-09-13T18:34:50.403Z,21.47
2017-09-13T18:37:19.408Z,23.27
2017-09-13T18:39:48.552Z,22.20
2017-09-13T18:42:17.237Z,22.83
2017-09-13T18:44:45.736Z,23.27
2017-09-13T18:47:14.390Z,22.87
2017-09-13T18:49:44.764Z,23.07
2017-09-13T18:52:13.509Z,24.80
2017-09-13T18:54:42.147Z,23.40
2017-09-13T18:57:10.968Z,23.70
2017-09-13T18:59:39.615Z,24.77
2017-09-13T19:02:08.112Z,22.00
2017-09-13T19:04:36.761Z,23.37
2017-09-13T19:07:05.539Z,22.97
2017-09-13T19:09:34.076Z,23.90
2017-09-13T19:12:03.216Z,23.00
2017-09-13T19:14:31.924Z,23.37
2017-09-13T19:17:00.545Z,23.03
2017-09-13T19:19:29.182Z,24.57
2017-09-13T19:21:57.319Z,25.63
2017-09-13T19:24:26.858Z,22.83
2017-09-13T19:26:55.368Z,22.90
2017-09-13T19:29:24.048Z,25.50
2017-09-13T19:31:52.612Z,24.50
2017-09-13T19:34:21.152Z,22.23
2017-09-13T19:36:50.447Z,23.53
2017-09-13T19:39:19.311Z,24.03
2017-09-13T19:41:47.355Z,24.10
2017-09-13T19:44:16.103Z,25.10
2017-09-13T19:46:44.660Z,25.73
2017-09-13T19:49:13.339Z,23.30
2017-09-13T19:51:42.218Z,23.70
2017-09-13T19:54:10.703Z,22.63
2017-09-13T19:56:39.212Z,24.13
2017-09-13T19:59:07.988Z,22.33
2017-09-13T20:01:36.732Z,24.33
2017-09-13T20:04:05.141Z,24.20
2017-09-13T20:06:34.084Z,25.53
2017-09-13T20:09:02.664Z,23.77
2017-09-13T20:11:31.936Z,22.60
2017-09-13T20:14:00.651Z,24.17
2017-09-13T20:16:29.372Z,23.10
2017-09-13T20:18:58.639Z,23.47
2017-09-13T20:21:29.000Z,24.27
2017-09-13T20:23:57.403Z,23.47
2017-09-13T20:26:26.032Z,23.30
2017-09-13T20:28:54.896Z,23.87
2017-09-13T20:31:23.370Z,24.53
2017-09-13T20:33:51.963Z,24.50
2017-09-13T20:36:20.579Z,24.17
2017-09-13T20:38:49.856Z,24.67
2017-09-13T20:41:18.955Z,24.73
2017-09-13T20:43:47.664Z,25.73
2017-09-13T20:46:16.383Z,24.93
2017-09-13T20:48:44.788Z,24.57
2017-09-13T20:51:12.971Z,23.63
2017-09-13T20:53:41.727Z,23.27
2017-09-13T20:56:10.133Z,25.30
2017-09-13T20:58:38.840Z,24.10
2017-09-13T21:01:07.520Z,23.30
2017-09-13T21:03:36.196Z,25.17
2017-09-13T21:06:04.861Z,25.93
2017-09-13T21:08:33.383Z,26.23
2017-09-13T21:11:02.063Z,24.10
2017-09-13T21:13:30.960Z,25.47
2017-09-13T21:15:59.545Z,25.43
2017-09-13T21:18:28.032Z,24.90
2017-09-13T21:20:56.821Z,24.30
2017-09-13T21:23:25.504Z,24.87
2017-09-13T21:25:54.280Z,25.90
2017-09-13T21:28:22.884Z,24.50
2017-09-13T21:30:51.467Z,24.37
2017-09-13T21:33:20.147Z,24.70
2017-09-13T21:35:48.826Z,26.73
2017-09-13T21:38:17.252Z,26.00
2017-09-13T21:40:45.915Z,26.60
2017-09-13T21:43:14.900Z,27.90
2017-09-13T21:45:43.676Z,27.37
2017-09-13T21:48:12.236Z,27.77
2017-09-13T21:50:40.354Z,26.70
2017-09-13T21:53:08.817Z,26.20
2017-09-13T21:55:37.343Z,26.00
2017-09-13T21:58:07.644Z,27.00
2017-09-13T22:00:35.679Z,26.13
2017-09-13T22:03:04.428Z,27.47
2017-09-13T22:05:33.292Z,27.60
2017-09-13T22:08:01.359Z,28.20
2017-09-13T22:10:29.847Z,24.90
2017-09-13T22:12:58.605Z,28.50
2017-09-13T22:15:27.108Z,26.37
2017-09-13T22:17:55.914Z,25.73
2017-09-13T22:20:24.704Z,26.90
2017-09-13T22:22:53.444Z,26.93
2017-09-13T22:25:22.719Z,24.73
2017-09-13T22:27:51.712Z,27.33
2017-09-13T22:30:20.460Z,27.57
2017-09-13T22:32:48.483Z,26.40
2017-09-13T22:35:17.376Z,25.00
2017-09-13T22:37:46.643Z,26.10
2017-09-13T22:40:15.216Z,27.23
2017-09-13T22:42:43.791Z,28.53
2017-09-13T22:45:12.580Z,27.63
2017-09-13T22:47:41.188Z,26.50
2017-09-13T22:50:09.971Z,26.90
2017-09-13T22:52:38.820Z,25.93
2017-09-13T22:55:08.164Z,26.00
2017-09-13T22:57:37.084Z,26.57
2017-09-13T23:00:07.167Z,26.90
2017-09-13T23:02:35.699Z,27.70
2017-09-13T23:05:05.032Z,27.70
2017-09-13T23:07:34.528Z,28.47
2017-09-13T23:10:03.804Z,27.30
2017-09-13T23:12:33.080Z,27.17
2017-09-13T23:15:01.623Z,27.40
2017-09-13T23:17:30.024Z,28.90
2017-09-13T23:19:58.730Z,27.60
2017-09-13T23:22:27.440Z,29.47
2017-09-13T23:24:56.185Z,26.80
2017-09-13T23:27:24.994Z,29.93
2017-09-13T23:29:53.729Z,28.90
2017-09-13T23:32:22.365Z,28.37
2017-09-13T23:34:51.177Z,29.77
2017-09-13T23:37:19.610Z,28.63
2017-09-13T23:39:48.124Z,27.80
2017-09-13T23:42:16.938Z,30.30
2017-09-13T23:44:45.659Z,29.23
2017-09-13T23:47:14.314Z,30.10
2017-09-13T23:49:43.098Z,28.73
2017-09-13T23:52:11.127Z,29.33
2017-09-13T23:54:39.651Z,29.97
2017-09-13T23:57:08.346Z,30.43
2017-09-13T23:59:36.994Z,29.70
